Aérodrome :
LOGIN :

S'inscrire | Disclaimer

   EN    FR    IT 

 










Légende :    VFR   VFR Marginal   IFR   IFR Intensif   IFR Très Intensif
Visi : 
Plafond : 
>= 8 km
>= 3000ft
5 à 8 km
1000 à 3000 ft
1500m à 5 km
500 à 1000 ft
800 à 1500m
200 à 500 ft
< 800m
< 200 ft
Symboles :   Orages  Brouillard  Fortes neiges  Fortes précipitations  Vent > 20 kt
SIGMETs :   Divers  Orages  Givrage  Turbulence  Onde Orograph.  Cendres Volcan.







- Altitude de l'aérodrome : 157 ft
- Code IATA : LIL
- Voir les cartes d'approche


LFQQ - Lille Lesquin

DERNIER METAR :
  • 152230Z AUTO 16015KT 2400 -RA BR OVC006/// ///TCU 00/M00 Q1009 BECMG 1200 BR OVC003

METARs EXPIRÉS :
  • 152200Z AUTO 15015KT 2700 -RA BR OVC007/// ///TCU 00/M00 Q1009 BECMG 3000 BR OVC007
  • 152130Z AUTO 15019KT 2500 -RA BR OVC008/// ///TCU 00/M01 Q1009 BECMG 3000 BR OVC007
  • 152100Z AUTO 15016KT 3200 -RA BR OVC010/// ///TCU 00/M01 Q1010 TEMPO FZRA BECMG OVC007
  • 152030Z AUTO 14020KT 5000 BR OVC012 00/M01 Q1009 TEMPO FZRA BECMG OVC007
  • 152000Z AUTO 14017KT 3700 -RA BR OVC012/// ///TCU 00/M01 Q1010 TEMPO 14018G28KT 9999 RA BECMG OVC007

TAF AMD TAF LFQQ
Valide du 15 à 20h jusqu'au 17 à 00h UTC


152004Z 1520/1624 14018G28KT 7000 RA BKN012 OVC030
TEMPO 1520/1522 FZRA
BECMG 1520/1523 18015KT 3000 BR OVC007
BECMG 1600/1603 1200 BR OVC003
BECMG 1603/1605 0300 FG VV///
PROB40 1606/1613 4000 BR NSC
ATIS : +33 3 20 16 19 54
Pas de NOTAMs connus pour ce terrain.
2 SIGMETs publiés pour la FIR Paris (LFFF) :
 
Givrage fort avec pluie surfondue
LFFF SIGMET 7 VALID 152000/160000 LFPW
LFFF PARIS FIR/UIR SEV ICE (FZRA) FCST WI N5100 E00145 - N5115 E00200 - N4930 E00600 - N4900 E00445 - N4830 E00530 - N4730 E00415 - N4630 E00445 - N4630 E00400 - N4815 E00400 - N4945 E00145 - N5100 E00145 SFC/FL020 MOV E 15KT NC=
Turbulence forte
LFFF SIGMET 6 VALID 151900/152300 LFPW
LFFF PARIS FIR/UIR SEV TURB FCST WI N5000 W00015 - N5115 E00200 - N5015 E00415 - N5000 E00400 - N5000 E00145 - N4930 E00030 - N5000 W00015 SFC/FL050 MOV NE 20KT NC=



MET'MAP, la Météo Aéronautique d'un coup d'oeil ! - Copyright ORBIFLY Décembre 2007 - Disclaimer

ORBIFLY MET'MAP TEAM :

Programmation & Développement : Alexandra Zaïnal
Conception & Développement : Baudouin d'Aumeries
Co-Programmation & Développement : Marc-Olivier Méhu
Soutien technique & logistique : Manuel Goepfert

Contact : metmap@orbifly.com




SOURCES & CREDITS :

   NOAA